Zimmerdale, Kansas
Current Conditions -  °F | °C
As of 6:55 PM on Tuesday 21 Oct 2014 (Local Time) from KEWK Reporting Station
Clear Clear  
Wind Chill: 70°   Ceiling: Unl
Heat Index: 70°   Visibility: 10mi
Dew Point: 55°   Wind: 7mph
Humidity: 60%   Direction: 150°SSE
Pressure: 30.04"   Gusts: NA
Location:  38.0076°N, 97.2953°W
Report Text: KEWK 212355Z AUTO 15006KT 10SM CLR 21/13 A3004 RMK AO1 10260 20210 402600100 57003
Loading
Personal Weather Stations






























Interactive Weather Map
Tropical Storm Tracking
New forecast layout! Learn more

10-Day Weather Forecast

Advertisements
Track Severe Weather on mobile